Time;durP1;ratioP1;P1;durP2;ratioP2;P2;SDS_P1;SDS_P2;PMS_P1;PMS_P2;Temp;Humidity;BMP_temperature;BMP_pressure;BME280_temperature;BME280_humidity;BME280_pressure;Samples;Min_cycle;Max_cycle;Signal;HPM_P1;HPM_P2
2022/01/11 05:00:13;;;;;;;28.65;15.02;;;3.80;99.90;;;;;;6002093;23;21431;31
2022/01/11 05:02:40;;;;;;;27.10;15.05;;;3.80;99.90;;;;;;4949374;28;20303;-68
2022/01/11 05:05:07;;;;;;;27.10;14.13;;;3.80;99.90;;;;;;4950886;28;20678;-69
2022/01/11 05:07:34;;;;;;;24.50;14.05;;;3.80;99.90;;;;;;4950414;28;20214;-68
2022/01/11 05:10:01;;;;;;;24.30;14.02;;;3.80;99.90;;;;;;4939047;29;20585;-69
2022/01/11 05:12:28;;;;;;;28.80;16.15;;;3.80;99.90;;;;;;4953123;28;20236;-67
2022/01/11 05:14:54;;;;;;;34.28;16.55;;;3.80;99.90;;;;;;4952521;28;20280;-68
2022/01/11 05:17:22;;;;;;;28.80;16.30;;;3.80;99.90;;;;;;4949120;28;20202;-69
2022/01/11 05:19:49;;;;;;;40.58;17.77;;;3.80;99.90;;;;;;4939032;29;20682;-69
2022/01/11 05:22:16;;;;;;;34.58;16.60;;;3.80;99.90;;;;;;4952440;28;20221;-67
2022/01/11 05:24:43;;;;;;;30.90;16.02;;;3.80;99.90;;;;;;4952767;28;20212;-68
2022/01/11 05:27:10;;;;;;;33.00;16.90;;;3.80;99.90;;;;;;4952723;29;20230;-67
2022/01/11 05:29:36;;;;;;;29.50;18.38;;;3.90;99.90;;;;;;4952804;28;20248;-67
2022/01/11 05:32:04;;;;;;;29.58;15.88;;;3.90;99.90;;;;;;4951484;28;20225;-67
2022/01/11 05:34:33;;;;;;;27.38;15.80;;;3.80;99.90;;;;;;4942809;28;20213;-68
2022/01/11 05:37:00;;;;;;;22.75;14.52;;;3.90;99.90;;;;;;4950397;29;20205;-67
2022/01/11 05:39:26;;;;;;;22.90;14.57;;;3.80;99.90;;;;;;4951846;28;20209;-69
2022/01/11 05:41:53;;;;;;;28.52;15.35;;;3.80;99.90;;;;;;4952058;29;20272;-68
2022/01/11 05:44:20;;;;;;;29.73;14.30;;;3.80;99.90;;;;;;4952809;28;20300;-67
2022/01/11 05:46:46;;;;;;;25.58;15.10;;;3.80;99.90;;;;;;4952411;28;20256;-69
2022/01/11 05:49:13;;;;;;;29.25;13.68;;;3.80;99.90;;;;;;4952104;29;20290;-68
2022/01/11 05:51:41;;;;;;;27.45;15.55;;;3.80;99.90;;;;;;4951895;29;20220;-67
2022/01/11 05:54:08;;;;;;;28.80;14.23;;;3.80;99.90;;;;;;4952722;28;20260;-68
2022/01/11 05:56:35;;;;;;;24.13;14.18;;;3.80;99.90;;;;;;4951899;28;20213;-68
2022/01/11 05:59:01;;;;;;;24.88;14.55;;;3.80;99.90;;;;;;4952648;28;20209;-68
2022/01/11 06:01:28;;;;;;;24.52;13.07;;;3.80;99.90;;;;;;4951881;28;20236;-68
2022/01/11 06:03:55;;;;;;;27.42;12.02;;;3.80;99.90;;;;;;4952619;29;20283;-70
2022/01/11 06:06:21;;;;;;;24.23;14.38;;;3.80;99.90;;;;;;4951150;28;20205;-69
2022/01/11 06:08:49;;;;;;;23.88;14.35;;;3.80;99.90;;;;;;4947271;29;20201;-68
2022/01/11 06:11:16;;;;;;;24.83;14.70;;;3.80;99.90;;;;;;4952014;28;20222;-68
2022/01/11 06:13:43;;;;;;;26.73;13.95;;;3.80;99.90;;;;;;4952376;28;20208;-67
2022/01/11 06:16:09;;;;;;;24.70;14.48;;;3.80;99.90;;;;;;4952255;28;20209;-68
2022/01/11 06:18:36;;;;;;;21.13;13.60;;;3.80;99.90;;;;;;4952685;28;20201;-68
2022/01/11 06:21:03;;;;;;;23.00;13.40;;;3.80;99.90;;;;;;4951911;28;20225;-67
2022/01/11 06:23:30;;;;;;;20.58;12.32;;;3.90;99.90;;;;;;4952113;28;20198;-68
2022/01/11 06:25:58;;;;;;;19.52;11.85;;;3.80;99.90;;;;;;4951977;28;20253;-68
2022/01/11 06:28:25;;;;;;;22.55;12.60;;;3.90;99.90;;;;;;4951932;29;20210;-68
2022/01/11 06:30:52;;;;;;;23.98;13.13;;;3.80;99.90;;;;;;4952053;28;20232;-70
2022/01/11 06:33:18;;;;;;;21.83;12.80;;;3.90;99.90;;;;;;4956231;28;20233;-68
2022/01/11 06:35:45;;;;;;;22.83;14.27;;;3.90;99.90;;;;;;4952795;28;20217;-67
2022/01/11 06:38:12;;;;;;;21.23;13.82;;;3.90;99.90;;;;;;4947998;29;20206;-67
2022/01/11 06:40:39;;;;;;;27.67;12.63;;;3.90;99.90;;;;;;4953340;29;20225;-67
2022/01/11 06:43:07;;;;;;;29.70;14.60;;;3.90;99.90;;;;;;4955403;29;20205;-67
2022/01/11 06:45:34;;;;;;;20.45;12.27;;;3.90;99.90;;;;;;4955255;29;20730;-66
2022/01/11 06:48:01;;;;;;;22.67;13.02;;;3.90;99.90;;;;;;4954533;29;20201;-66
2022/01/11 06:50:28;;;;;;;22.48;14.00;;;3.90;99.90;;;;;;4954711;28;20252;-67
2022/01/11 06:52:55;;;;;;;28.30;12.45;;;3.90;99.90;;;;;;4952582;29;20276;-69
2022/01/11 06:55:21;;;;;;;24.23;13.30;;;3.90;99.90;;;;;;4953890;28;20214;-68
2022/01/11 06:57:48;;;;;;;24.77;12.45;;;3.90;99.90;;;;;;4943601;28;20209;-68
2022/01/11 07:00:18;;;;;;;22.70;13.07;;;3.90;99.90;;;;;;4948656;28;20217;-70
2022/01/11 07:02:46;;;;;;;19.25;12.20;;;3.90;99.90;;;;;;4945758;29;20209;-67
2022/01/11 07:05:13;;;;;;;21.02;13.00;;;3.90;99.90;;;;;;4955037;28;20205;-68
2022/01/11 07:07:40;;;;;;;20.15;11.95;;;3.90;99.90;;;;;;4954461;28;20295;-67
2022/01/11 07:10:07;;;;;;;17.95;12.70;;;3.90;99.90;;;;;;4954624;29;20654;-68
2022/01/11 07:12:33;;;;;;;27.00;15.35;;;3.90;99.90;;;;;;4965859;28;20225;-68
2022/01/11 07:15:00;;;;;;;42.70;24.42;;;3.80;99.90;;;;;;4955118;28;20213;-67
2022/01/11 07:17:28;;;;;;;26.33;16.02;;;3.80;99.90;;;;;;4954025;29;20280;-67
2022/01/11 07:19:55;;;;;;;51.08;33.08;;;3.80;99.90;;;;;;4950903;29;20610;-66
2022/01/11 07:22:21;;;;;;;31.70;18.98;;;3.80;99.90;;;;;;4951444;28;20220;-67
2022/01/11 07:24:48;;;;;;;19.55;12.20;;;3.80;99.90;;;;;;4953920;28;20205;-67
2022/01/11 07:27:15;;;;;;;34.55;19.73;;;3.80;99.90;;;;;;4954537;28;20644;-67
2022/01/11 07:29:42;;;;;;;29.92;16.90;;;3.80;99.90;;;;;;4947046;29;20218;-67
2022/01/11 07:32:09;;;;;;;18.30;12.40;;;3.80;99.90;;;;;;4947724;28;20592;-67
2022/01/11 07:34:37;;;;;;;25.58;13.50;;;3.80;99.90;;;;;;4953488;28;20554;-66
2022/01/11 07:37:04;;;;;;;25.38;15.43;;;3.80;99.90;;;;;;4953458;28;20205;-67
2022/01/11 07:39:30;;;;;;;30.27;17.92;;;3.80;99.90;;;;;;4947031;29;20209;-68
2022/01/11 07:41:57;;;;;;;33.90;19.95;;;3.80;99.90;;;;;;4950265;28;20627;-67
2022/01/11 07:44:24;;;;;;;27.00;14.63;;;3.80;99.90;;;;;;4940387;29;20670;-68
2022/01/11 07:46:52;;;;;;;23.20;13.50;;;3.80;99.90;;;;;;4953691;28;20292;-66
2022/01/11 07:49:19;;;;;;;26.70;13.60;;;3.80;99.90;;;;;;4953524;28;20205;-67
2022/01/11 07:51:47;;;;;;;25.00;14.20;;;3.80;99.90;;;;;;4952764;28;20226;-66
2022/01/11 07:54:14;;;;;;;36.50;18.00;;;3.80;99.90;;;;;;4953371;28;20210;-67
2022/01/11 07:56:40;;;;;;;23.70;12.93;;;3.80;99.90;;;;;;4954408;28;20666;-67
2022/01/11 07:59:09;;;;;;;19.20;10.40;;;3.90;99.90;;;;;;4951307;28;20244;-66
2022/01/11 08:01:36;;;;;;;22.67;14.95;;;3.90;99.90;;;;;;4953210;29;20233;-67
2022/01/11 08:04:03;;;;;;;24.98;15.45;;;3.90;99.90;;;;;;4953217;28;20204;-67
2022/01/11 08:06:30;;;;;;;27.52;14.88;;;3.90;99.90;;;;;;4936241;29;20356;-67
2022/01/11 08:08:58;;;;;;;21.73;13.90;;;3.90;99.90;;;;;;4939975;29;20206;-67
2022/01/11 08:11:24;;;;;;;26.00;16.13;;;3.90;99.90;;;;;;4949399;29;20283;-67
2022/01/11 08:13:51;;;;;;;24.35;14.93;;;3.90;99.90;;;;;;4952658;28;20280;-67
2022/01/11 08:16:18;;;;;;;25.77;15.35;;;3.90;99.90;;;;;;4948733;29;20248;-66
2022/01/11 08:18:44;;;;;;;32.35;18.20;;;4.00;99.90;;;;;;4953662;29;20201;-66
2022/01/11 08:21:11;;;;;;;27.55;15.68;;;4.00;99.90;;;;;;4952908;29;20316;-67
2022/01/11 08:23:38;;;;;;;21.25;13.32;;;4.00;99.90;;;;;;4950822;29;20209;-66
2022/01/11 08:26:06;;;;;;;25.80;12.98;;;4.00;99.90;;;;;;4953578;28;20205;-67
2022/01/11 08:28:33;;;;;;;34.22;17.15;;;4.00;99.90;;;;;;4953316;28;20296;-66
2022/01/11 08:31:00;;;;;;;39.08;22.00;;;4.00;99.90;;;;;;4951855;29;20241;-68
2022/01/11 08:33:28;;;;;;;23.95;13.57;;;4.00;99.90;;;;;;4953029;28;20232;-67
2022/01/11 08:35:54;;;;;;;27.75;15.63;;;4.00;99.90;;;;;;4953227;29;20217;-67
2022/01/11 08:38:21;;;;;;;30.17;17.30;;;4.00;99.90;;;;;;4953363;28;20288;-68
2022/01/11 08:40:48;;;;;;;21.58;11.43;;;4.10;99.90;;;;;;4953343;28;20225;-67
2022/01/11 08:43:16;;;;;;;24.85;13.45;;;4.10;99.90;;;;;;4953166;28;20617;-68
2022/01/11 08:45:43;;;;;;;19.98;12.23;;;4.10;99.90;;;;;;4953280;28;20772;-65
2022/01/11 08:48:10;;;;;;;27.55;14.95;;;4.10;99.90;;;;;;4953333;28;20681;-68
2022/01/11 08:50:37;;;;;;;20.85;12.35;;;4.10;99.90;;;;;;4952834;28;20237;-67
2022/01/11 08:53:04;;;;;;;27.85;17.58;;;4.10;99.90;;;;;;4952518;28;20275;-68
2022/01/11 08:55:31;;;;;;;28.88;14.95;;;4.20;99.90;;;;;;4952634;28;20705;-68
2022/01/11 08:57:57;;;;;;;20.23;12.13;;;4.20;99.90;;;;;;4934838;28;20249;-68
2022/01/11 09:00:26;;;;;;;33.28;19.35;;;4.20;99.90;;;;;;4933672;29;20217;-68
2022/01/11 09:02:54;;;;;;;21.77;12.05;;;4.20;99.90;;;;;;4938752;29;20272;-66
2022/01/11 09:05:22;;;;;;;29.58;15.15;;;4.20;99.90;;;;;;4952857;29;20288;-66
2022/01/11 09:07:49;;;;;;;19.77;10.82;;;4.20;99.90;;;;;;4952761;29;20287;-67
2022/01/11 09:10:17;;;;;;;22.05;13.30;;;4.20;99.90;;;;;;4953525;29;20680;-67
2022/01/11 09:12:44;;;;;;;22.50;12.77;;;4.20;99.90;;;;;;4953790;29;20728;-67
2022/01/11 09:15:11;;;;;;;25.25;16.10;;;4.20;99.90;;;;;;4954104;28;20348;-66
2022/01/11 09:17:39;;;;;;;19.27;13.23;;;4.20;99.90;;;;;;4954293;28;20284;-66
2022/01/11 09:20:08;;;;;;;31.48;19.90;;;4.20;99.90;;;;;;4954154;28;20209;-66
2022/01/11 09:22:34;;;;;;;24.67;14.38;;;4.30;99.90;;;;;;4953478;28;20714;-67
2022/01/11 09:25:01;;;;;;;13.98;9.77;;;4.30;99.90;;;;;;4954156;28;20218;-67
2022/01/11 09:27:28;;;;;;;12.85;9.73;;;4.20;99.90;;;;;;4953593;28;20256;-68
2022/01/11 09:29:55;;;;;;;16.05;9.20;;;4.20;99.90;;;;;;4945918;29;20205;-67
2022/01/11 09:32:24;;;;;;;22.80;11.98;;;4.20;99.90;;;;;;4937290;28;20221;-67
2022/01/11 09:34:52;;;;;;;16.90;11.73;;;4.30;99.90;;;;;;4934962;29;20300;-67
2022/01/11 09:37:19;;;;;;;16.75;10.25;;;4.30;99.90;;;;;;4934781;29;20687;-68
2022/01/11 09:39:47;;;;;;;16.75;11.10;;;4.30;99.90;;;;;;4932897;29;20242;-68
2022/01/11 09:42:14;;;;;;;21.45;13.20;;;4.30;99.90;;;;;;4933227;29;20989;-68
2022/01/11 09:44:41;;;;;;;20.88;11.48;;;4.30;99.90;;;;;;4951044;29;20208;-68
2022/01/11 09:47:09;;;;;;;13.35;11.60;;;4.30;99.90;;;;;;4952104;28;20698;-68
2022/01/11 09:49:35;;;;;;;16.85;12.38;;;4.30;99.90;;;;;;4951976;28;20224;-67
2022/01/11 09:52:07;;;;;;;17.65;11.00;;;4.30;99.90;;;;;;4951797;28;20228;-67
2022/01/11 09:54:35;;;;;;;15.95;11.25;;;4.40;99.90;;;;;;4951539;28;20260;-67
2022/01/11 09:57:02;;;;;;;15.40;10.60;;;4.40;99.90;;;;;;4952231;28;20300;-67
2022/01/11 09:59:28;;;;;;;15.35;9.60;;;4.50;99.90;;;;;;4952212;29;20213;-67
2022/01/11 10:01:55;;;;;;;15.05;10.32;;;4.50;99.90;;;;;;4951622;28;20291;-68
2022/01/11 10:04:27;;;;;;;14.32;9.55;;;4.40;99.90;;;;;;4951879;29;20292;-67
2022/01/11 10:06:55;;;;;;;19.10;10.98;;;4.40;99.90;;;;;;4950363;28;20269;-68
2022/01/11 10:09:24;;;;;;;16.63;11.73;;;4.40;99.90;;;;;;4936344;29;20238;-67
2022/01/11 10:11:56;;;;;;;21.55;10.38;;;4.40;99.90;;;;;;4936945;29;20230;-67
2022/01/11 10:14:25;;;;;;;22.58;16.30;;;4.50;99.90;;;;;;4951515;29;20284;-67
2022/01/11 10:17:10;;;;;;;23.15;17.98;;;4.40;99.90;;;;;;4956133;28;20213;-67
2022/01/11 10:19:38;;;;;;;16.98;15.07;;;4.40;99.90;;;;;;4955865;28;20209;-67
2022/01/11 10:22:06;;;;;;;19.85;12.43;;;4.40;99.90;;;;;;4955692;28;20236;-67
2022/01/11 10:24:38;;;;;;;20.25;10.98;;;4.40;99.90;;;;;;4955592;28;20396;-68
2022/01/11 10:27:08;;;;;;;19.35;10.00;;;4.50;99.90;;;;;;4956167;28;20232;-67
2022/01/11 10:29:37;;;;;;;27.40;14.20;;;4.50;99.90;;;;;;4955703;28;20213;-67
2022/01/11 10:32:19;;;;;;;24.00;13.93;;;4.50;99.90;;;;;;4954348;29;20317;-67
2022/01/11 10:34:48;;;;;;;21.70;13.93;;;4.50;99.90;;;;;;4954163;29;20228;-68
2022/01/11 10:37:16;;;;;;;21.35;14.98;;;4.50;99.90;;;;;;4955349;28;20292;-67
2022/01/11 10:39:45;;;;;;;22.10;13.10;;;4.50;99.90;;;;;;4955127;28;20213;-67
2022/01/11 10:42:28;;;;;;;16.38;11.15;;;4.60;99.90;;;;;;4955818;28;20634;-67
2022/01/11 10:44:58;;;;;;;21.73;11.50;;;4.50;99.90;;;;;;4955440;28;20212;-67
2022/01/11 10:47:28;;;;;;;20.27;12.15;;;4.50;99.90;;;;;;4955571;28;20209;-67
2022/01/11 10:49:58;;;;;;;16.33;11.38;;;4.50;99.90;;;;;;4955533;28;20268;-67
2022/01/11 10:52:27;;;;;;;18.85;12.32;;;4.50;99.90;;;;;;4955282;28;20586;-68
2022/01/11 10:54:56;;;;;;;20.10;12.50;;;4.50;99.90;;;;;;4954645;28;20273;-67
2022/01/11 10:57:26;;;;;;;15.65;11.63;;;4.50;99.90;;;;;;4941916;28;20221;-66
2022/01/11 11:00:17;;;;;;;22.35;13.48;;;4.50;99.90;;;;;;4936086;29;20218;-67
2022/01/11 11:02:49;;;;;;;18.45;11.90;;;4.50;99.90;;;;;;4937110;29;20218;-67
2022/01/11 11:05:23;;;;;;;21.65;12.07;;;4.60;99.90;;;;;;4955354;29;20209;-67
2022/01/11 11:08:06;;;;;;;22.90;12.73;;;4.60;99.90;;;;;;4955042;28;20268;-67
2022/01/11 11:10:37;;;;;;;19.20;12.82;;;4.60;99.90;;;;;;4936061;29;20280;-67
2022/01/11 11:13:06;;;;;;;28.17;13.80;;;4.60;99.90;;;;;;4938694;29;20228;-67
2022/01/11 11:15:35;;;;;;;17.13;10.45;;;4.60;99.90;;;;;;4955237;28;20209;-66
2022/01/11 11:18:03;;;;;;;14.57;11.07;;;4.60;99.90;;;;;;4954001;28;20316;-66
2022/01/11 11:20:31;;;;;;;16.23;11.20;;;4.60;99.90;;;;;;4954410;28;20209;-66
2022/01/11 11:22:59;;;;;;;13.38;10.82;;;4.50;99.90;;;;;;4954278;28;20209;-65
2022/01/11 11:25:26;;;;;;;20.17;15.20;;;4.50;99.90;;;;;;4954986;28;20213;-66
2022/01/11 11:27:55;;;;;;;21.95;13.18;;;4.50;99.90;;;;;;4950771;28;20297;-66
2022/01/11 11:30:22;;;;;;;17.58;11.85;;;4.50;99.90;;;;;;4935442;29;20210;-66
2022/01/11 11:32:53;;;;;;;19.75;11.85;;;4.50;99.90;;;;;;4936666;29;20217;-66
2022/01/11 11:35:20;;;;;;;15.85;10.25;;;4.60;99.90;;;;;;4953978;29;20629;-66
2022/01/11 11:37:48;;;;;;;19.95;10.90;;;4.60;99.90;;;;;;4953433;28;20260;-66
2022/01/11 11:40:17;;;;;;;17.85;11.93;;;4.50;99.90;;;;;;4938255;28;20255;-66
2022/01/11 11:42:45;;;;;;;16.38;10.43;;;4.50;99.90;;;;;;4935567;29;20218;-63
2022/01/11 11:45:19;;;;;;;16.73;10.57;;;4.50;99.90;;;;;;4954421;29;20264;-66
2022/01/11 11:47:46;;;;;;;15.55;9.77;;;4.50;99.90;;;;;;4954669;28;20619;-66
2022/01/11 11:50:18;;;;;;;15.73;10.25;;;4.50;99.90;;;;;;4954425;28;20209;-66
2022/01/11 11:52:46;;;;;;;23.70;15.88;;;4.60;99.90;;;;;;4954128;28;20233;-66
2022/01/11 11:55:20;;;;;;;33.92;15.85;;;4.70;99.90;;;;;;4954404;28;20226;-67
2022/01/11 11:57:48;;;;;;;20.63;13.30;;;4.70;99.90;;;;;;4954191;28;20682;-67
2022/01/11 12:00:22;;;;;;;16.40;11.70;;;4.70;99.90;;;;;;4953986;28;20270;-67
2022/01/11 12:02:51;;;;;;;16.80;9.80;;;4.70;99.90;;;;;;4954338;28;20209;-67
2022/01/11 12:05:38;;;;;;;16.38;10.70;;;4.70;99.90;;;;;;4935218;29;20214;-67
2022/01/11 12:08:32;;;;;;;14.88;9.98;;;4.80;99.90;;;;;;4934311;29;20214;-67
2022/01/11 12:11:02;;;;;;;18.35;11.63;;;4.70;99.90;;;;;;4948765;29;20251;-67
2022/01/11 12:13:42;;;;;;;14.23;10.40;;;4.70;99.90;;;;;;4953353;28;20279;-67
2022/01/11 12:16:42;;;;;;;17.27;10.90;;;4.70;99.90;;;;;;4953701;28;20208;-67
2022/01/11 12:19:41;;;;;;;17.35;11.73;;;4.70;99.90;;;;;;4953863;28;20253;-67
2022/01/11 12:22:25;;;;;;;20.05;10.18;;;4.60;99.90;;;;;;4953355;28;20231;-67
2022/01/11 12:24:55;;;;;;;22.25;11.80;;;4.60;99.90;;;;;;4952892;28;20209;-68
2022/01/11 12:27:22;;;;;;;16.85;10.43;;;4.50;99.90;;;;;;4954005;28;20213;-67
2022/01/11 12:29:55;;;;;;;19.38;13.57;;;4.60;99.90;;;;;;4952160;28;20229;-67
2022/01/11 12:32:25;;;;;;;27.70;16.50;;;4.60;99.90;;;;;;4953405;28;20241;-67
2022/01/11 12:34:58;;;;;;;43.78;24.42;;;4.70;99.90;;;;;;4953314;28;20217;-66
2022/01/11 12:37:32;;;;;;;38.50;24.05;;;4.70;99.90;;;;;;4953287;29;20268;-67
2022/01/11 12:40:02;;;;;;;20.65;13.38;;;4.70;99.90;;;;;;4952040;29;20654;-67
2022/01/11 12:42:29;;;;;;;27.65;18.75;;;4.80;99.90;;;;;;4952769;28;20226;-67
2022/01/11 12:47:43;;;;;;;22.80;12.73;;;4.70;99.90;;;;;;4953374;29;20212;-67
2022/01/11 12:50:12;;;;;;;19.30;11.85;;;4.60;99.90;;;;;;4953551;28;20612;-67
2022/01/11 12:52:40;;;;;;;18.75;11.77;;;4.60;99.90;;;;;;4952039;28;20707;-67
2022/01/11 12:55:08;;;;;;;14.05;11.27;;;4.60;99.90;;;;;;4952222;28;20225;-67
2022/01/11 12:57:35;;;;;;;18.40;11.80;;;4.70;99.90;;;;;;4948219;28;20210;-67
2022/01/11 13:00:05;;;;;;;14.70;10.73;;;4.70;99.90;;;;;;4952299;28;20201;-67
2022/01/11 13:02:34;;;;;;;13.75;9.55;;;4.70;99.90;;;;;;4952454;28;20295;-67
2022/01/11 13:05:05;;;;;;;14.23;10.48;;;4.70;99.90;;;;;;4952942;28;20201;-66
2022/01/11 13:07:34;;;;;;;13.35;10.20;;;4.70;99.90;;;;;;4951531;29;20201;-67
2022/01/11 13:10:10;;;;;;;14.27;11.07;;;4.70;99.90;;;;;;4952333;28;20804;-67
2022/01/11 13:12:40;;;;;;;16.00;13.07;;;4.80;99.90;;;;;;4952151;28;20224;-67
2022/01/11 13:15:13;;;;;;;22.58;13.05;;;4.70;99.90;;;;;;4950036;28;20251;-69
2022/01/11 13:17:51;;;;;;;14.88;11.30;;;4.70;99.90;;;;;;4949353;29;20292;-67
2022/01/11 13:20:19;;;;;;;14.18;8.80;;;4.60;99.90;;;;;;4948340;28;20213;-68
2022/01/11 13:23:09;;;;;;;15.07;9.52;;;4.60;99.90;;;;;;4951603;28;20252;-68
2022/01/11 13:25:43;;;;;;;13.32;9.80;;;4.60;99.90;;;;;;4952266;29;20205;-68
2022/01/11 13:28:10;;;;;;;13.77;9.45;;;4.50;99.90;;;;;;4945792;28;20205;-69
2022/01/11 13:30:39;;;;;;;17.77;9.85;;;4.50;99.90;;;;;;4959510;28;20228;-69
2022/01/11 13:33:06;;;;;;;15.90;9.45;;;4.50;99.90;;;;;;4954830;28;20892;-68
2022/01/11 13:35:34;;;;;;;12.88;8.65;;;4.60;99.90;;;;;;4951174;28;20319;-68
2022/01/11 13:38:12;;;;;;;13.13;9.95;;;4.60;99.90;;;;;;4952119;28;20296;-68
2022/01/11 13:40:40;;;;;;;15.23;8.35;;;4.60;99.90;;;;;;4951317;28;20221;-68
2022/01/11 13:43:10;;;;;;;10.45;8.80;;;4.60;99.90;;;;;;4951701;28;20256;-69
2022/01/11 13:45:37;;;;;;;14.20;8.38;;;4.60;99.90;;;;;;4954068;28;20247;-69
2022/01/11 13:48:12;;;;;;;13.95;10.43;;;4.60;99.90;;;;;;4966504;28;20209;-69
2022/01/11 13:50:59;;;;;;;14.25;9.90;;;4.50;99.90;;;;;;4953239;28;20232;-68
2022/01/11 13:53:29;;;;;;;16.88;9.30;;;4.60;99.90;;;;;;4951239;28;20260;-68
2022/01/11 13:56:08;;;;;;;15.82;9.52;;;4.60;99.90;;;;;;4955399;28;20228;-68
2022/01/11 13:58:38;;;;;;;11.57;8.30;;;4.50;99.90;;;;;;4971132;28;20205;-68
2022/01/11 14:01:05;;;;;;;12.77;8.45;;;4.50;99.90;;;;;;4951127;29;20236;-68
2022/01/11 14:03:32;;;;;;;13.45;8.65;;;4.50;99.90;;;;;;4951171;28;20240;-68
2022/01/11 14:06:13;;;;;;;14.98;8.52;;;4.50;99.90;;;;;;4945012;28;20300;-68
2022/01/11 14:08:44;;;;;;;16.83;8.70;;;4.50;99.90;;;;;;4935416;29;20651;-69
2022/01/11 14:11:13;;;;;;;13.57;8.05;;;4.50;99.90;;;;;;4955510;28;20299;-69
2022/01/11 14:13:42;;;;;;;14.63;8.35;;;4.50;99.90;;;;;;4951573;28;20252;-69
2022/01/11 14:16:14;;;;;;;15.82;8.30;;;4.50;99.90;;;;;;4948998;28;20576;-69
2022/01/11 14:18:41;;;;;;;26.50;17.92;;;4.40;99.90;;;;;;4955449;28;20270;-68
2022/01/11 14:21:10;;;;;;;13.13;10.05;;;4.40;99.90;;;;;;4935611;28;20285;-69
2022/01/11 14:23:38;;;;;;;16.35;10.15;;;4.40;99.90;;;;;;4947530;28;20291;-69
2022/01/11 14:26:08;;;;;;;17.13;9.48;;;4.30;99.90;;;;;;4951590;28;20205;-68
2022/01/11 14:28:37;;;;;;;17.90;12.85;;;4.40;99.90;;;;;;4950542;29;20205;-69
2022/01/11 14:31:13;;;;;;;17.95;10.82;;;4.30;99.90;;;;;;4951758;28;20661;-68
2022/01/11 14:33:40;;;;;;;14.45;10.13;;;4.30;99.90;;;;;;4935453;29;20213;-69
2022/01/11 14:36:15;;;;;;;25.80;11.05;;;4.30;99.90;;;;;;4951200;28;20869;-67
2022/01/11 14:38:44;;;;;;;20.75;10.85;;;4.30;99.90;;;;;;4950680;29;20216;-68
2022/01/11 14:41:15;;;;;;;15.52;10.95;;;4.20;99.90;;;;;;4951590;28;20236;-68
2022/01/11 14:43:56;;;;;;;19.00;9.55;;;4.20;99.90;;;;;;4949340;29;20204;-67
2022/01/11 14:46:23;;;;;;;17.63;10.00;;;4.20;99.90;;;;;;4958565;28;20260;-68
2022/01/11 14:48:50;;;;;;;14.50;9.20;;;4.20;99.90;;;;;;4963080;28;20741;-68
2022/01/11 14:51:20;;;;;;;17.90;10.48;;;4.20;99.90;;;;;;4950262;28;20229;-68
2022/01/11 14:53:48;;;;;;;12.82;8.20;;;4.20;99.90;;;;;;4954219;29;20565;-68
2022/01/11 14:56:17;;;;;;;15.50;9.50;;;4.10;99.90;;;;;;4952471;28;20280;-68
2022/01/11 14:58:46;;;;;;;16.80;9.27;;;4.10;99.90;;;;;;4949093;29;20201;-68
2022/01/11 15:01:16;;;;;;;14.38;9.52;;;4.10;99.90;;;;;;4954123;28;20241;-68
2022/01/11 15:03:45;;;;;;;16.25;9.93;;;4.10;99.90;;;;;;4956587;28;20208;-68
2022/01/11 15:06:16;;;;;;;17.00;11.18;;;4.00;99.90;;;;;;4956387;28;20209;-67
2022/01/11 15:08:48;;;;;;;18.48;11.38;;;4.00;99.90;;;;;;4954306;28;20213;-67
2022/01/11 15:11:19;;;;;;;23.23;14.48;;;3.90;99.90;;;;;;4953735;28;20280;-67
2022/01/11 15:13:50;;;;;;;25.85;14.20;;;3.90;99.90;;;;;;4954235;28;20730;-67
2022/01/11 15:16:19;;;;;;;36.63;22.27;;;3.80;99.90;;;;;;4950754;28;20232;-67
2022/01/11 15:18:47;;;;;;;17.35;9.60;;;3.80;99.90;;;;;;4952507;28;20213;-69
2022/01/11 15:21:14;;;;;;;18.67;11.25;;;3.80;99.90;;;;;;4948900;28;20276;-67
2022/01/11 15:23:41;;;;;;;20.48;11.60;;;3.80;99.90;;;;;;4948956;28;20252;-67
2022/01/11 15:26:09;;;;;;;22.75;13.40;;;3.70;99.90;;;;;;4954293;29;20610;-68
2022/01/11 15:28:36;;;;;;;26.80;14.52;;;3.70;99.90;;;;;;4950114;28;20216;-67
2022/01/11 15:31:03;;;;;;;25.05;14.85;;;3.70;99.90;;;;;;4952155;28;20225;-68
2022/01/11 15:33:29;;;;;;;26.80;12.80;;;3.70;99.90;;;;;;4952572;28;20209;-68
2022/01/11 15:35:56;;;;;;;34.40;17.55;;;3.70;99.90;;;;;;4947692;28;20232;-67
2022/01/11 15:38:23;;;;;;;24.98;14.82;;;3.60;99.90;;;;;;4953069;28;20239;-66
2022/01/11 15:40:53;;;;;;;24.58;12.65;;;3.60;99.90;;;;;;4951489;28;20225;-67
2022/01/11 15:43:22;;;;;;;25.45;16.48;;;3.60;99.90;;;;;;4950862;29;20587;-69
2022/01/11 15:45:49;;;;;;;23.13;12.57;;;3.60;99.90;;;;;;4953614;28;20205;-67
2022/01/11 15:48:16;;;;;;;32.13;16.73;;;3.60;99.90;;;;;;4953863;28;20204;-67
2022/01/11 15:50:43;;;;;;;25.80;14.35;;;3.50;99.90;;;;;;4953206;29;20228;-67
2022/01/11 15:53:09;;;;;;;23.10;12.00;;;3.50;99.90;;;;;;4939966;28;20220;-67
2022/01/11 15:55:36;;;;;;;26.95;14.45;;;3.50;99.90;;;;;;4952657;29;20922;-67
2022/01/11 15:58:03;;;;;;;22.58;13.48;;;3.50;99.90;;;;;;4943658;29;20209;-67
2022/01/11 16:00:31;;;;;;;23.85;13.48;;;3.50;99.90;;;;;;4953156;28;21180;-69
2022/01/11 16:02:58;;;;;;;26.83;14.05;;;3.50;99.90;;;;;;4957238;28;20833;-69
2022/01/11 16:05:25;;;;;;;21.42;10.95;;;3.50;99.90;;;;;;4938643;29;20296;-69
2022/01/11 16:07:51;;;;;;;24.55;13.52;;;3.40;99.90;;;;;;4951096;29;20197;-68
2022/01/11 16:10:18;;;;;;;21.10;11.10;;;3.40;99.90;;;;;;4952974;28;20733;-69
2022/01/11 16:12:45;;;;;;;20.05;11.40;;;3.40;99.90;;;;;;4952750;28;20213;-70
2022/01/11 16:15:11;;;;;;;26.00;13.52;;;3.40;99.90;;;;;;4954357;28;20299;-68
2022/01/11 16:17:39;;;;;;;22.17;11.48;;;3.40;99.90;;;;;;4950235;28;20244;-68
2022/01/11 16:20:08;;;;;;;21.10;13.43;;;3.40;99.90;;;;;;4953733;28;20209;-68
2022/01/11 16:22:34;;;;;;;26.52;11.82;;;3.40;99.90;;;;;;4959452;28;20240;-68
2022/01/11 16:25:01;;;;;;;22.15;11.68;;;3.40;99.90;;;;;;4942835;29;20197;-69
2022/01/11 16:27:28;;;;;;;26.13;13.70;;;3.40;99.90;;;;;;4953298;28;20779;-69
2022/01/11 16:29:55;;;;;;;20.80;12.27;;;3.30;99.90;;;;;;4948210;29;20324;-69
2022/01/11 16:32:23;;;;;;;26.73;12.68;;;3.30;99.90;;;;;;4957374;28;20237;-68
2022/01/11 16:34:52;;;;;;;21.60;12.75;;;3.30;99.90;;;;;;4953070;29;20323;-69
2022/01/11 16:37:20;;;;;;;27.73;13.32;;;3.30;99.90;;;;;;4952642;28;20240;-70
2022/01/11 16:39:57;;;;;;;21.95;13.38;;;3.30;99.90;;;;;;4952274;28;20201;-69
2022/01/11 16:42:41;;;;;;;25.10;13.35;;;3.30;99.90;;;;;;4952104;28;20228;-69
2022/01/11 16:45:11;;;;;;;32.65;17.80;;;3.30;99.90;;;;;;4950675;29;20193;-68
2022/01/11 16:47:38;;;;;;;40.22;19.75;;;3.30;99.90;;;;;;4951633;28;20549;-66
2022/01/11 16:50:07;;;;;;;43.80;25.00;;;3.20;99.90;;;;;;4940121;28;20205;-67
2022/01/11 16:52:34;;;;;;;43.95;25.55;;;3.20;99.90;;;;;;4960099;28;20232;-68
2022/01/11 16:55:01;;;;;;;39.88;22.90;;;3.20;99.90;;;;;;4952503;28;20227;-68
2022/01/11 16:57:28;;;;;;;42.65;23.75;;;3.20;99.90;;;;;;4945705;29;20205;-69
2022/01/11 16:59:55;;;;;;;34.15;20.10;;;3.20;99.90;;;;;;4949342;29;20617;-69
2022/01/11 17:02:22;;;;;;;36.53;20.27;;;3.20;99.90;;;;;;4951910;29;20702;-69
2022/01/11 17:04:49;;;;;;;33.05;22.27;;;3.10;99.90;;;;;;4952237;28;20206;-69
2022/01/11 17:07:17;;;;;;;35.78;17.25;;;3.10;99.90;;;;;;4955896;28;20197;-69
2022/01/11 17:09:45;;;;;;;35.83;18.50;;;3.10;99.90;;;;;;4935183;28;20221;-68
2022/01/11 17:12:12;;;;;;;29.92;15.70;;;3.10;99.90;;;;;;4942589;29;20667;-69
2022/01/11 17:14:39;;;;;;;27.42;17.83;;;3.10;99.90;;;;;;4934191;29;20218;-67
2022/01/11 17:17:06;;;;;;;31.63;16.58;;;3.10;99.90;;;;;;4949356;28;20229;-67
2022/01/11 17:19:32;;;;;;;32.90;20.30;;;3.10;99.90;;;;;;4947978;28;20210;-68
2022/01/11 17:22:00;;;;;;;24.60;12.35;;;3.10;99.90;;;;;;4960663;28;20259;-69
2022/01/11 17:24:28;;;;;;;26.80;14.30;;;3.00;99.90;;;;;;4945034;28;20268;-68
2022/01/11 17:26:55;;;;;;;32.38;17.15;;;3.00;99.90;;;;;;4941472;29;20197;-68
2022/01/11 17:29:21;;;;;;;34.03;18.60;;;3.00;99.90;;;;;;4945544;29;20205;-67
2022/01/11 17:31:49;;;;;;;43.22;23.95;;;3.00;99.90;;;;;;4950968;28;20221;-68
2022/01/11 17:34:16;;;;;;;36.20;16.15;;;3.00;99.90;;;;;;4950925;28;20209;-68
2022/01/11 17:36:43;;;;;;;40.83;20.13;;;3.00;99.90;;;;;;4959438;28;20232;-68
2022/01/11 17:39:10;;;;;;;40.10;20.85;;;2.90;99.90;;;;;;4944899;28;20271;-68
2022/01/11 17:41:38;;;;;;;52.05;24.73;;;2.90;99.90;;;;;;4944802;29;20221;-68
2022/01/11 17:44:06;;;;;;;72.03;33.65;;;2.90;99.90;;;;;;4945548;28;20750;-69
2022/01/11 17:46:33;;;;;;;36.38;17.98;;;2.90;99.90;;;;;;4951033;28;20341;-68
2022/01/11 17:49:01;;;;;;;56.17;25.52;;;2.80;99.90;;;;;;4946212;28;20260;-67